Time;durP1;ratioP1;P1;durP2;ratioP2;P2;SDS_P1;SDS_P2;PMS_P1;PMS_P2;Temp;Humidity;BMP_temperature;BMP_pressure;BME280_temperature;BME280_humidity;BME280_pressure;Samples;Min_cycle;Max_cycle;Signal;HPM_P1;HPM_P2
2024/04/21 00:01:33;;;;;;;18.83;3.33;;;;;;;4.62;100.00;102117.31;5348187;26;20502;-71
2024/04/21 00:03:58;;;;;;;20.88;3.50;;;;;;;4.67;100.00;102118.41;5348274;26;20052;-70
2024/04/21 00:06:23;;;;;;;20.63;3.60;;;;;;;4.68;100.00;102115.88;5348144;26;20001;-71
2024/04/21 00:08:49;;;;;;;21.25;3.88;;;;;;;4.69;100.00;102114.19;5348208;26;20009;-68
2024/04/21 00:11:14;;;;;;;21.13;3.83;;;;;;;4.82;100.00;102111.31;5348236;26;20435;-69
2024/04/21 00:13:39;;;;;;;20.80;3.67;;;;;;;4.77;100.00;102110.19;5346568;26;20001;-68
2024/04/21 00:16:05;;;;;;;20.02;3.50;;;;;;;4.77;100.00;102107.56;5348223;26;20353;-68
2024/04/21 00:18:30;;;;;;;21.45;3.30;;;;;;;4.82;100.00;102106.06;5347791;26;20448;-67
2024/04/21 00:20:55;;;;;;;16.98;3.42;;;;;;;4.80;100.00;102089.38;5347881;26;20007;-67
2024/04/21 00:23:21;;;;;;;17.95;3.30;;;;;;;4.83;100.00;102093.88;5348292;26;20387;-72
2024/04/21 00:25:59;;;;;;;20.08;3.28;;;;;;;4.77;100.00;102086.59;5347740;26;20008;-71
2024/04/21 00:28:24;;;;;;;18.58;3.22;;;;;;;4.79;100.00;102084.06;5348058;26;20081;-70
2024/04/21 00:30:50;;;;;;;16.60;3.28;;;;;;;4.72;100.00;102085.50;5348088;26;20025;-69
2024/04/21 00:33:15;;;;;;;16.17;3.03;;;;;;;4.66;100.00;102077.31;5347949;26;20004;-68
2024/04/21 00:35:47;;;;;;;18.92;3.20;;;;;;;4.61;100.00;102081.47;5347987;26;20476;-69
2024/04/21 00:38:12;;;;;;;20.70;3.10;;;;;;;4.51;100.00;102074.88;5305436;26;991072;-68
2024/04/21 00:40:38;;;;;;;20.33;3.17;;;;;;;4.37;100.00;102084.69;5347675;26;20005;-69
2024/04/21 00:43:04;;;;;;;17.80;3.05;;;;;;;4.16;100.00;102082.75;5347606;26;20008;-70
2024/04/21 00:45:31;;;;;;;18.77;3.30;;;;;;;4.03;100.00;102088.22;5346188;26;20024;-72
2024/04/21 00:47:57;;;;;;;18.23;3.38;;;;;;;3.89;100.00;102086.59;5347470;26;20011;-71
2024/04/21 00:50:24;;;;;;;15.20;2.88;;;;;;;3.85;100.00;102096.03;5347693;26;19996;-71
2024/04/21 00:52:51;;;;;;;19.00;3.40;;;;;;;3.75;100.00;102099.88;5347780;26;20007;-70
2024/04/21 00:55:17;;;;;;;19.20;3.30;;;;;;;3.65;100.00;102098.47;5347351;26;20015;-68
2024/04/21 00:57:42;;;;;;;17.20;3.28;;;;;;;3.63;100.00;102094.00;5345618;26;19997;-69
2024/04/21 01:00:10;;;;;;;19.17;3.10;;;;;;;3.65;100.00;102100.22;5338833;26;20012;-68
2024/04/21 01:02:35;;;;;;;20.05;3.33;;;;;;;3.67;100.00;102095.97;5347460;26;20012;-67
2024/04/21 01:05:01;;;;;;;17.90;3.20;;;;;;;3.76;100.00;102096.44;5347425;26;20424;-69
2024/04/21 01:07:26;;;;;;;16.60;2.92;;;;;;;3.88;100.00;102083.09;5347352;26;20432;-68
2024/04/21 01:09:52;;;;;;;18.60;3.22;;;;;;;3.96;100.00;102081.78;5347395;26;20320;-68
2024/04/21 01:12:17;;;;;;;15.95;3.22;;;;;;;4.04;100.00;102076.03;5389733;26;20383;-68
2024/04/21 01:14:42;;;;;;;17.05;3.13;;;;;;;3.89;100.00;102083.97;5347461;26;20447;-69
2024/04/21 01:17:08;;;;;;;20.38;3.35;;;;;;;3.90;100.00;102065.75;5347102;26;19997;-71
2024/04/21 01:19:33;;;;;;;17.35;3.05;;;;;;;4.02;100.00;102062.88;5347514;26;20000;-68
2024/04/21 01:21:58;;;;;;;17.25;3.00;;;;;;;3.98;100.00;102058.31;5347031;26;19997;-70
2024/04/21 01:24:24;;;;;;;16.08;2.85;;;;;;;3.97;100.00;102059.13;5347293;26;19993;-68
2024/04/21 01:26:49;;;;;;;16.98;3.20;;;;;;;3.88;100.00;102064.78;5346958;26;20013;-72
2024/04/21 01:29:15;;;;;;;18.42;3.22;;;;;;;3.86;100.00;102068.13;5347188;26;20391;-70
2024/04/21 01:31:40;;;;;;;18.15;3.03;;;;;;;3.69;100.00;102062.06;5347166;26;20005;-73
2024/04/21 01:34:05;;;;;;;19.52;3.58;;;;;;;3.70;100.00;102063.81;5345195;26;19993;-69
2024/04/21 01:36:30;;;;;;;18.70;3.40;;;;;;;3.49;100.00;102062.81;5346577;26;19997;-67
2024/04/21 01:38:56;;;;;;;17.38;3.42;;;;;;;3.35;100.00;102050.72;5346866;26;20007;-68
2024/04/21 01:41:21;;;;;;;17.00;3.20;;;;;;;3.35;100.00;102061.19;5346935;26;20012;-67
2024/04/21 01:43:46;;;;;;;18.98;3.53;;;;;;;3.21;100.00;102057.81;5346835;26;20004;-67
2024/04/21 01:46:12;;;;;;;17.52;3.33;;;;;;;3.25;100.00;102051.06;5346688;26;20008;-68
2024/04/21 01:48:37;;;;;;;17.00;3.28;;;;;;;3.20;100.00;102052.50;5347238;26;19997;-68
2024/04/21 01:51:03;;;;;;;17.33;3.70;;;;;;;3.06;100.00;102044.81;5344815;26;20051;-68
2024/04/21 01:53:28;;;;;;;17.38;3.38;;;;;;;3.07;100.00;102044.03;5346856;26;19992;-69
2024/04/21 01:55:53;;;;;;;18.58;3.40;;;;;;;2.91;100.00;102039.69;5346989;26;20395;-73
2024/04/21 01:58:19;;;;;;;20.05;3.70;;;;;;;2.93;100.00;102045.88;5346142;26;19997;-72
2024/04/21 02:00:44;;;;;;;19.55;3.45;;;;;;;2.97;100.00;102046.91;5346734;26;20076;-70
2024/04/21 02:03:09;;;;;;;18.60;3.20;;;;;;;2.90;100.00;102027.41;5346748;26;20004;-73
2024/04/21 02:05:35;;;;;;;19.58;3.42;;;;;;;2.82;100.00;102030.44;5346801;26;20074;-71
2024/04/21 02:08:00;;;;;;;17.55;3.10;;;;;;;2.90;100.00;102023.91;5346783;26;20008;-72
2024/04/21 02:10:26;;;;;;;19.95;3.72;;;;;;;2.95;100.00;102017.22;5344517;26;20075;-73
2024/04/21 02:12:51;;;;;;;16.15;3.40;;;;;;;2.82;100.00;102020.88;5346235;26;20008;-70
2024/04/21 02:15:16;;;;;;;19.10;3.35;;;;;;;2.72;100.00;102011.66;5346664;26;20004;-71
2024/04/21 02:17:42;;;;;;;18.83;3.30;;;;;;;2.60;100.00;102024.91;5344286;26;19993;-68
2024/04/21 02:20:09;;;;;;;16.33;3.05;;;;;;;2.57;100.00;102013.41;5344221;26;19997;-69
2024/04/21 02:22:34;;;;;;;16.60;2.92;;;;;;;2.58;100.00;102000.44;5346476;26;20047;-67
2024/04/21 02:24:59;;;;;;;17.33;3.22;;;;;;;2.49;100.00;102006.84;5346145;26;19997;-68
2024/04/21 02:27:25;;;;;;;16.17;2.95;;;;;;;2.46;100.00;102009.28;5346033;26;20455;-67
2024/04/21 02:29:50;;;;;;;17.73;3.20;;;;;;;2.47;100.00;102000.66;5346077;26;20312;-70
2024/04/21 02:32:15;;;;;;;17.65;3.20;;;;;;;2.46;100.00;101999.75;5346178;26;20336;-67
2024/04/21 02:34:41;;;;;;;19.20;3.25;;;;;;;2.44;100.00;102001.38;5346293;26;20016;-67
2024/04/21 02:37:06;;;;;;;18.95;3.15;;;;;;;2.46;100.00;101999.75;5345698;26;19997;-68
2024/04/21 02:39:32;;;;;;;16.38;2.95;;;;;;;2.34;100.00;102005.16;5345800;26;20001;-67
2024/04/21 02:41:57;;;;;;;17.85;3.03;;;;;;;2.29;100.00;102004.03;5346013;26;20008;-68
2024/04/21 02:44:23;;;;;;;18.85;3.08;;;;;;;2.26;100.00;102001.25;5345947;26;20070;-69
2024/04/21 02:46:48;;;;;;;16.33;3.30;;;;;;;2.20;100.00;101990.44;5345898;26;19997;-69
2024/04/21 02:49:14;;;;;;;17.42;3.10;;;;;;;2.21;100.00;101987.94;5346043;26;20005;-70
2024/04/21 02:51:39;;;;;;;19.02;3.30;;;;;;;2.08;100.00;101985.44;5338546;26;20037;-71
2024/04/21 02:54:04;;;;;;;14.35;3.00;;;;;;;2.06;100.00;101987.06;5345847;26;19997;-68
2024/04/21 02:56:30;;;;;;;17.55;3.20;;;;;;;2.04;100.00;101984.38;5345605;26;19997;-68
2024/04/21 02:58:55;;;;;;;18.92;3.22;;;;;;;2.15;100.00;101971.94;5345618;26;20004;-68
2024/04/21 03:01:20;;;;;;;15.75;2.90;;;;;;;2.21;100.00;101968.75;5345251;26;20016;-68
2024/04/21 03:03:47;;;;;;;15.35;3.10;;;;;;;2.13;100.00;101967.47;5345511;26;19997;-69
2024/04/21 03:06:12;;;;;;;17.50;3.10;;;;;;;2.18;100.00;101966.00;5345215;26;19997;-67
2024/04/21 03:08:37;;;;;;;18.92;3.00;;;;;;;2.25;100.00;101953.34;5345946;26;20071;-68
2024/04/21 03:11:03;;;;;;;18.45;3.10;;;;;;;2.29;100.00;101956.13;5348891;26;20008;-67
2024/04/21 03:13:28;;;;;;;17.95;3.00;;;;;;;2.35;100.00;101949.56;5348923;26;20001;-67
2024/04/21 03:15:53;;;;;;;15.35;2.85;;;;;;;2.48;100.00;101955.47;5348868;26;19992;-67
2024/04/21 03:18:19;;;;;;;18.55;3.20;;;;;;;2.48;100.00;101943.31;5348663;26;20390;-71
2024/04/21 03:20:58;;;;;;;17.27;3.15;;;;;;;2.54;100.00;101953.19;5348575;26;20379;-69
2024/04/21 03:23:24;;;;;;;16.48;3.10;;;;;;;2.53;100.00;101939.22;5343337;26;20341;-69
2024/04/21 03:25:49;;;;;;;17.58;3.10;;;;;;;2.51;100.00;101950.41;5348711;26;20008;-68
2024/04/21 03:28:15;;;;;;;17.67;3.00;;;;;;;2.61;100.00;101940.53;5391008;26;19997;-68
2024/04/21 03:30:41;;;;;;;18.63;3.05;;;;;;;2.61;100.00;101934.44;5348914;26;20007;-69
2024/04/21 03:33:06;;;;;;;16.63;3.10;;;;;;;2.61;100.00;101930.09;5348698;26;20007;-73
2024/04/21 03:35:32;;;;;;;19.60;3.08;;;;;;;2.57;100.00;101927.25;5348552;26;20004;-73
2024/04/21 03:37:58;;;;;;;20.75;3.13;;;;;;;2.59;100.00;101923.00;5348615;26;19997;-73
2024/04/21 03:40:23;;;;;;;17.00;3.10;;;;;;;2.65;100.00;101917.22;5348656;26;20336;-69
2024/04/21 03:42:49;;;;;;;19.38;3.28;;;;;;;2.71;100.00;101913.22;5348625;26;20011;-67
2024/04/21 03:45:14;;;;;;;17.70;3.00;;;;;;;2.70;100.00;101913.16;5390954;26;20001;-68
2024/04/21 03:47:39;;;;;;;17.58;2.97;;;;;;;2.79;100.00;101901.44;5348631;26;20029;-68
2024/04/21 03:50:05;;;;;;;19.10;3.13;;;;;;;2.78;100.00;101897.06;5348515;26;20008;-67
2024/04/21 03:52:31;;;;;;;17.90;3.15;;;;;;;2.82;100.00;101899.84;5348428;26;20332;-67
2024/04/21 03:54:57;;;;;;;21.80;3.30;;;;;;;2.92;100.00;101902.13;5348469;26;20005;-68
2024/04/21 03:57:24;;;;;;;18.65;3.55;;;;;;;2.93;100.00;101896.97;5348457;26;20000;-72
2024/04/21 03:59:49;;;;;;;19.20;3.42;;;;;;;3.01;100.00;101899.09;5348348;26;20008;-67
2024/04/21 04:02:14;;;;;;;20.67;3.40;;;;;;;3.11;100.00;101897.00;5348358;26;20374;-67
2024/04/21 04:04:40;;;;;;;18.25;3.10;;;;;;;3.13;100.00;101897.09;5348044;26;20005;-67
2024/04/21 04:07:05;;;;;;;17.33;3.00;;;;;;;3.14;100.00;101893.66;5348336;26;20460;-68
2024/04/21 04:09:30;;;;;;;17.77;3.40;;;;;;;3.29;100.00;101877.88;5348416;26;20011;-67
2024/04/21 04:11:56;;;;;;;17.10;2.90;;;;;;;3.21;100.00;101874.88;5348057;26;20451;-74
2024/04/21 04:14:21;;;;;;;16.77;2.80;;;;;;;3.20;100.00;101866.97;5348399;26;20001;-73
2024/04/21 04:16:47;;;;;;;17.95;3.30;;;;;;;3.25;100.00;101861.16;5348129;26;19993;-72
2024/04/21 04:19:12;;;;;;;19.48;3.72;;;;;;;3.22;100.00;101866.22;5348098;26;19997;-73
2024/04/21 04:21:37;;;;;;;20.20;3.13;;;;;;;3.09;100.00;101867.31;5347714;26;20025;-72
2024/04/21 04:24:03;;;;;;;19.40;3.17;;;;;;;3.04;100.00;101866.16;5348147;26;20001;-70
2024/04/21 04:26:28;;;;;;;15.77;2.85;;;;;;;2.91;100.00;101858.53;5347850;26;19993;-74
2024/04/21 04:28:53;;;;;;;17.60;2.88;;;;;;;2.79;100.00;101875.34;5347962;26;20042;-74
2024/04/21 04:31:19;;;;;;;19.50;3.38;;;;;;;2.75;100.00;101868.19;5348004;26;19997;-72
2024/04/21 04:33:44;;;;;;;20.10;3.60;;;;;;;2.77;100.00;101876.97;5347808;26;20000;-73
2024/04/21 04:36:10;;;;;;;18.73;3.10;;;;;;;2.74;100.00;101866.38;5347397;26;20008;-71
2024/04/21 04:38:35;;;;;;;16.73;3.00;;;;;;;2.73;100.00;101868.91;5347899;26;20008;-66
2024/04/21 04:41:00;;;;;;;18.23;3.10;;;;;;;2.70;100.00;101873.97;5347946;26;20008;-67
2024/04/21 04:43:26;;;;;;;15.93;2.70;;;;;;;2.67;100.00;101873.81;5347753;26;20435;-67
2024/04/21 04:45:51;;;;;;;16.75;3.15;;;;;;;2.63;100.00;101882.31;5347682;26;20386;-74
2024/04/21 04:48:16;;;;;;;16.90;3.00;;;;;;;2.58;100.00;101880.34;5347877;26;20005;-73
2024/04/21 04:50:42;;;;;;;17.38;3.17;;;;;;;2.55;100.00;101890.63;5347486;26;19993;-74
2024/04/21 04:53:07;;;;;;;15.30;2.97;;;;;;;2.51;100.00;101888.66;5347843;26;20009;-72
2024/04/21 04:55:32;;;;;;;14.82;2.90;;;;;;;2.39;100.00;101883.69;5347697;26;19997;-73
2024/04/21 04:57:58;;;;;;;16.38;2.80;;;;;;;2.44;100.00;101889.13;5347412;26;20436;-73
2024/04/21 05:00:23;;;;;;;17.85;3.10;;;;;;;2.37;100.00;101880.06;5347639;26;20318;-73
2024/04/21 05:02:48;;;;;;;15.90;3.00;;;;;;;2.29;100.00;101889.22;5345798;26;19997;-67
2024/04/21 05:05:14;;;;;;;17.48;2.90;;;;;;;2.26;100.00;101892.53;5347650;26;20474;-68
2024/04/21 05:07:39;;;;;;;16.35;2.80;;;;;;;2.22;100.00;101894.91;5347650;26;20011;-70
2024/04/21 05:10:05;;;;;;;17.15;3.10;;;;;;;2.14;100.00;101898.78;5345489;26;19996;-73
2024/04/21 05:12:30;;;;;;;15.70;2.97;;;;;;;2.19;100.00;101899.97;5347418;26;20001;-70
2024/04/21 05:14:56;;;;;;;17.02;3.00;;;;;;;2.38;100.00;101905.34;5347554;26;20020;-70
2024/04/21 05:17:21;;;;;;;15.32;2.80;;;;;;;2.49;100.00;101903.34;5347045;26;20012;-71
2024/04/21 05:19:47;;;;;;;14.93;2.90;;;;;;;2.63;100.00;101909.28;5347235;26;20003;-67
2024/04/21 05:22:12;;;;;;;13.63;2.70;;;;;;;2.68;100.00;101912.16;5347470;26;20348;-70
2024/04/21 05:24:37;;;;;;;16.02;2.88;;;;;;;2.75;100.00;101915.19;5347361;26;20004;-69
2024/04/21 05:27:03;;;;;;;13.02;2.80;;;;;;;2.79;100.00;101911.91;5347327;26;20004;-70
2024/04/21 05:29:29;;;;;;;16.92;2.85;;;;;;;2.88;100.00;101918.44;5347358;26;20004;-69
2024/04/21 05:31:54;;;;;;;15.93;2.67;;;;;;;2.91;100.00;101918.59;5345968;26;20012;-73
2024/04/21 05:34:20;;;;;;;17.00;3.10;;;;;;;2.91;100.00;101915.97;5389766;26;19993;-74
2024/04/21 05:36:45;;;;;;;14.93;2.60;;;;;;;2.91;100.00;101916.91;5346979;26;20000;-74
2024/04/21 05:39:11;;;;;;;15.90;2.83;;;;;;;2.94;100.00;101929.19;5346957;26;20428;-72
2024/04/21 05:41:37;;;;;;;14.13;2.60;;;;;;;2.94;100.00;101939.66;5345079;26;20009;-72
2024/04/21 05:44:02;;;;;;;15.30;2.75;;;;;;;2.95;100.00;101938.84;5346653;26;19997;-73
2024/04/21 05:46:28;;;;;;;15.35;2.95;;;;;;;2.99;100.00;101938.19;5388972;26;20013;-74
2024/04/21 05:48:53;;;;;;;14.95;2.72;;;;;;;3.04;100.00;101943.66;5347117;26;19998;-74
2024/04/21 05:51:18;;;;;;;13.70;2.80;;;;;;;3.07;100.00;101942.13;5346899;26;20004;-73
2024/04/21 05:53:44;;;;;;;16.75;2.92;;;;;;;3.13;100.00;101949.34;5345326;26;20440;-75
2024/04/21 05:56:09;;;;;;;13.90;2.78;;;;;;;3.17;100.00;101951.31;5346662;26;20321;-75
2024/04/21 05:58:34;;;;;;;10.40;2.63;;;;;;;3.17;100.00;101947.81;5346728;26;20020;-73
2024/04/21 06:01:00;;;;;;;16.92;3.03;;;;;;;3.24;100.00;101958.66;5316111;26;20104;-72
2024/04/21 06:03:25;;;;;;;12.70;2.80;;;;;;;3.29;100.00;101956.28;5346754;26;19993;-73
2024/04/21 06:05:53;;;;;;;12.90;2.67;;;;;;;3.36;100.00;101963.63;5346587;26;20001;-73
2024/04/21 06:08:18;;;;;;;12.98;2.60;;;;;;;3.41;100.00;101967.38;5346725;26;20003;-71
2024/04/21 06:10:44;;;;;;;15.65;2.90;;;;;;;3.44;100.00;101970.16;5346822;26;20336;-74
2024/04/21 06:13:09;;;;;;;17.45;3.03;;;;;;;3.46;100.00;101972.84;5346614;26;19993;-73
2024/04/21 06:15:35;;;;;;;12.93;3.03;;;;;;;3.49;100.00;101976.53;5346886;26;20001;-71
2024/04/21 06:18:00;;;;;;;16.30;3.42;;;;;;;3.57;100.00;101986.44;5346478;26;20332;-71
2024/04/21 06:20:26;;;;;;;14.75;2.97;;;;;;;3.67;100.00;101983.50;5346373;26;20005;-70
2024/04/21 06:22:51;;;;;;;14.93;2.88;;;;;;;3.80;100.00;101983.31;5344867;26;20066;-71
2024/04/21 06:25:17;;;;;;;15.52;2.80;;;;;;;3.87;100.00;101986.22;5346340;26;20000;-71
2024/04/21 06:27:42;;;;;;;13.63;2.90;;;;;;;3.88;100.00;101988.03;5346240;26;20001;-71
2024/04/21 06:30:08;;;;;;;13.48;3.20;;;;;;;3.99;100.00;101985.13;5346500;26;19993;-71
2024/04/21 06:32:33;;;;;;;14.98;2.80;;;;;;;4.13;100.00;101984.88;5346351;26;20047;-69
2024/04/21 06:34:58;;;;;;;13.88;3.20;;;;;;;4.34;100.00;101999.03;5345831;26;20328;-69
2024/04/21 06:37:23;;;;;;;13.43;2.90;;;;;;;4.46;100.00;101998.72;5346331;26;20016;-68
2024/04/21 06:39:49;;;;;;;17.08;3.50;;;;;;;4.53;100.00;101999.91;5346116;26;19993;-68
2024/04/21 06:42:14;;;;;;;15.15;3.50;;;;;;;4.61;100.00;102008.13;5346120;26;20009;-68
2024/04/21 06:44:40;;;;;;;13.68;3.17;;;;;;;4.65;100.00;102010.06;5348840;26;20012;-67
2024/04/21 06:47:07;;;;;;;14.25;3.00;;;;;;;4.74;100.00;102018.34;5349160;26;20011;-68
2024/04/21 06:49:36;;;;;;;11.73;2.80;;;;;;;4.73;100.00;102027.03;5349161;26;20448;-68
2024/04/21 06:52:03;;;;;;;11.88;3.00;;;;;;;4.62;100.00;102025.63;5349171;26;20001;-68
2024/04/21 06:54:28;;;;;;;15.50;2.90;;;;;;;4.53;100.00;102029.59;5349092;26;20025;-74
2024/04/21 06:56:54;;;;;;;11.57;2.90;;;;;;;4.43;100.00;102035.22;5349113;26;20494;-71
2024/04/21 06:59:20;;;;;;;11.02;2.97;;;;;;;4.28;100.00;102038.00;5349032;26;19996;-71
2024/04/21 07:01:46;;;;;;;13.95;2.92;;;;;;;4.22;100.00;102042.03;5348826;26;20008;-74
2024/04/21 07:04:11;;;;;;;14.50;3.22;;;;;;;4.15;100.00;102044.34;5349295;26;20421;-73
2024/04/21 07:06:37;;;;;;;11.98;3.10;;;;;;;4.14;100.00;102057.34;5347351;26;20008;-73
2024/04/21 07:09:02;;;;;;;13.95;3.22;;;;;;;4.22;100.00;102065.59;5348704;26;20000;-72
2024/04/21 07:11:27;;;;;;;12.55;3.17;;;;;;;4.26;100.00;102063.19;5348898;26;20000;-73
2024/04/21 07:13:53;;;;;;;12.90;3.00;;;;;;;4.39;100.00;102069.94;5347259;26;20009;-72
2024/04/21 07:16:18;;;;;;;12.02;3.00;;;;;;;4.59;100.00;102078.78;5348989;26;20011;-69
2024/04/21 07:18:43;;;;;;;11.15;2.83;;;;;;;4.69;100.00;102086.25;5348919;26;20066;-69
2024/04/21 07:21:09;;;;;;;9.18;2.90;;;;;;;4.69;100.00;102082.75;5348658;26;20003;-67
2024/04/21 07:23:35;;;;;;;9.93;2.90;;;;;;;4.75;100.00;102093.50;5348920;26;19997;-67
2024/04/21 07:26:00;;;;;;;7.32;2.70;;;;;;;4.78;100.00;102091.03;5348756;26;20000;-68
2024/04/21 07:28:25;;;;;;;12.35;2.67;;;;;;;4.85;100.00;102093.13;5346791;26;20382;-68
2024/04/21 07:30:52;;;;;;;8.93;2.60;;;;;;;5.04;100.00;102097.50;5348510;26;20001;-68
2024/04/21 07:33:17;;;;;;;9.02;2.60;;;;;;;5.34;100.00;102097.09;5348838;26;20020;-74
2024/04/21 07:35:43;;;;;;;11.55;2.63;;;;;;;5.69;100.00;102094.28;5341915;26;20320;-68
2024/04/21 07:38:09;;;;;;;10.82;2.70;;;;;;;6.00;100.00;102103.53;5348328;26;19993;-68
2024/04/21 07:40:34;;;;;;;6.32;2.40;;;;;;;6.23;100.00;102113.31;5348509;26;20011;-74
2024/04/21 07:42:59;;;;;;;9.50;2.55;;;;;;;6.44;100.00;102130.81;5348606;26;20001;-74
2024/04/21 07:45:26;;;;;;;8.25;2.50;;;;;;;6.28;100.00;102135.41;5348479;26;20001;-75
2024/04/21 07:47:51;;;;;;;7.57;2.47;;;;;;;6.22;100.00;102153.53;5348634;26;20004;-72
2024/04/21 07:50:16;;;;;;;7.50;2.45;;;;;;;6.32;100.00;102156.53;5348245;26;20001;-72
2024/04/21 07:52:42;;;;;;;6.32;2.55;;;;;;;6.45;100.00;102156.22;5348762;26;19993;-72
2024/04/21 07:55:07;;;;;;;4.20;2.20;;;;;;;6.32;100.00;102170.59;5346147;26;20028;-72
2024/04/21 07:57:32;;;;;;;8.27;2.50;;;;;;;6.02;100.00;102162.28;5348364;26;19992;-72
2024/04/21 07:59:58;;;;;;;9.60;2.50;;;;;;;5.97;100.00;102167.31;5348668;26;20000;-72
2024/04/21 08:02:24;;;;;;;7.93;2.50;;;;;;;6.13;100.00;102165.34;5346170;26;19993;-71
2024/04/21 08:04:49;;;;;;;8.60;2.55;;;;;;;6.28;100.00;102180.03;5348147;26;20363;-71
2024/04/21 08:07:14;;;;;;;8.57;2.50;;;;;;;6.43;100.00;102186.78;5348361;26;19993;-72
2024/04/21 08:09:39;;;;;;;8.02;2.50;;;;;;;6.42;100.00;102198.13;5347959;26;20011;-71
2024/04/21 08:12:05;;;;;;;11.40;2.90;;;;;;;6.43;100.00;102194.66;5348455;26;20329;-69
2024/04/21 08:14:31;;;;;;;9.05;2.55;;;;;;;6.41;100.00;102199.88;5347969;26;20448;-71
2024/04/21 08:16:57;;;;;;;9.15;2.50;;;;;;;6.41;100.00;102206.84;5347887;26;20008;-72
2024/04/21 08:19:23;;;;;;;13.32;2.63;;;;;;;6.47;100.00;102211.47;5348045;26;20000;-72
2024/04/21 08:21:48;;;;;;;14.20;2.83;;;;;;;6.63;100.00;102214.81;5348211;26;20008;-72
2024/04/21 08:24:13;;;;;;;11.73;2.60;;;;;;;6.75;100.00;102216.16;5348038;26;20313;-72
2024/04/21 08:26:39;;;;;;;12.23;2.60;;;;;;;7.00;100.00;102209.28;5348022;26;20044;-72
2024/04/21 08:29:04;;;;;;;13.55;2.72;;;;;;;7.31;100.00;102217.56;5347838;26;20000;-72
2024/04/21 08:31:29;;;;;;;13.32;2.70;;;;;;;8.04;100.00;102209.78;5347994;26;20066;-71
2024/04/21 08:33:55;;;;;;;11.00;2.58;;;;;;;8.48;100.00;102207.88;5348164;26;20009;-71
2024/04/21 08:36:20;;;;;;;11.43;2.33;;;;;;;9.31;100.00;102211.44;5346167;26;20009;-69
2024/04/21 08:38:45;;;;;;;12.73;2.55;;;;;;;9.87;100.00;102212.28;5347487;26;20098;-68
2024/04/21 08:41:16;;;;;;;12.13;2.53;;;;;;;10.12;100.00;102213.84;5347945;26;20396;-67
2024/04/21 08:43:41;;;;;;;12.90;2.40;;;;;;;10.45;100.00;102225.34;5347282;26;20071;-66
2024/04/21 08:46:08;;;;;;;15.25;2.70;;;;;;;10.75;100.00;102222.59;5347631;26;20371;-67
2024/04/21 08:48:34;;;;;;;15.98;2.60;;;;;;;10.96;100.00;102229.28;5348034;26;20028;-67
2024/04/21 08:51:01;;;;;;;13.23;2.65;;;;;;;11.04;100.00;102238.31;5347368;26;20332;-66
2024/04/21 08:53:26;;;;;;;11.63;2.30;;;;;;;11.30;100.00;102231.00;5345913;26;20005;-67
2024/04/21 08:55:58;;;;;;;14.43;2.72;;;;;;;11.23;100.00;102237.00;5347548;26;19992;-65
2024/04/21 08:58:24;;;;;;;15.10;2.70;;;;;;;11.40;100.00;102234.75;5347662;26;20465;-67
2024/04/21 09:00:50;;;;;;;13.43;2.70;;;;;;;11.88;100.00;102240.19;5347451;26;19993;-67
2024/04/21 09:03:16;;;;;;;14.15;2.80;;;;;;;12.25;100.00;102239.22;5347713;26;19997;-68
2024/04/21 09:05:41;;;;;;;11.75;2.50;;;;;;;12.95;100.00;102244.03;5347355;26;20012;-69
2024/04/21 09:08:07;;;;;;;15.40;2.60;;;;;;;12.95;100.00;102244.03;5345612;26;20001;-70
2024/04/21 09:10:32;;;;;;;11.07;2.40;;;;;;;13.01;100.00;102248.53;5347336;26;19993;-70
2024/04/21 09:12:58;;;;;;;11.60;2.40;;;;;;;12.46;100.00;102252.00;5347144;26;19997;-67
2024/04/21 09:15:24;;;;;;;13.52;2.50;;;;;;;12.26;100.00;102251.63;5347463;26;19997;-70
2024/04/21 09:17:49;;;;;;;13.80;2.50;;;;;;;11.82;100.00;102272.75;5345801;26;20012;-69
2024/04/21 09:20:15;;;;;;;13.50;2.70;;;;;;;11.32;100.00;102263.69;5346961;26;20008;-67
2024/04/21 09:22:40;;;;;;;12.68;2.58;;;;;;;11.21;100.00;102273.09;5346965;26;20340;-69
2024/04/21 09:25:06;;;;;;;14.27;2.75;;;;;;;12.11;100.00;102269.88;5347443;26;19997;-67
2024/04/21 09:27:33;;;;;;;16.27;2.90;;;;;;;12.34;100.00;102267.69;5346908;26;20001;-67
2024/04/21 09:30:01;;;;;;;11.85;2.63;;;;;;;11.20;100.00;102278.38;5346935;26;19997;-67
2024/04/21 09:32:27;;;;;;;12.75;2.78;;;;;;;10.76;100.00;102285.22;5347422;26;20001;-68
2024/04/21 09:34:56;;;;;;;16.45;2.72;;;;;;;11.60;100.00;102288.16;5345416;26;19993;-70
2024/04/21 09:37:22;;;;;;;14.02;2.85;;;;;;;11.89;100.00;102287.03;5346607;26;19997;-71
2024/04/21 09:39:49;;;;;;;18.35;2.97;;;;;;;12.88;100.00;102296.09;5347300;26;20341;-68
2024/04/21 09:42:15;;;;;;;13.18;2.90;;;;;;;14.51;100.00;102280.72;5346985;26;20004;-68
2024/04/21 09:44:43;;;;;;;14.80;2.80;;;;;;;15.67;100.00;102298.63;5346804;26;20444;-72
2024/04/21 09:47:10;;;;;;;15.75;3.00;;;;;;;14.80;100.00;102307.69;5346784;26;20352;-69
2024/04/21 09:49:36;;;;;;;13.15;2.95;;;;;;;13.14;100.00;102306.28;5344785;26;20001;-69
2024/04/21 09:52:03;;;;;;;14.57;3.20;;;;;;;12.46;100.00;102310.34;5346491;26;20005;-69
2024/04/21 09:54:28;;;;;;;14.68;2.90;;;;;;;12.59;100.00;102299.97;5347065;26;20009;-70
2024/04/21 09:57:01;;;;;;;13.98;3.00;;;;;;;12.88;100.00;102309.34;5388940;26;20432;-69
2024/04/21 09:59:30;;;;;;;15.20;3.10;;;;;;;12.94;100.00;102313.88;5346431;26;19997;-71
2024/04/21 10:02:00;;;;;;;15.15;3.25;;;;;;;12.40;100.00;102309.34;5346871;26;19993;-68
2024/04/21 10:04:29;;;;;;;17.10;3.50;;;;;;;13.46;100.00;102318.34;5346528;26;20009;-70
2024/04/21 10:06:54;;;;;;;15.23;3.45;;;;;;;14.70;100.00;102310.25;5346493;26;20008;-67
2024/04/21 10:09:22;;;;;;;14.45;3.30;;;;;;;15.93;100.00;102319.25;5346431;26;19997;-68
2024/04/21 10:11:49;;;;;;;14.75;3.30;;;;;;;15.22;100.00;102318.72;5346356;26;19997;-70
2024/04/21 10:14:15;;;;;;;14.27;3.75;;;;;;;13.98;100.00;102326.16;5339462;26;20009;-68
2024/04/21 10:16:42;;;;;;;16.30;3.53;;;;;;;13.05;100.00;102336.22;5346628;26;20459;-70
2024/04/21 10:19:12;;;;;;;16.63;3.83;;;;;;;12.20;100.00;102329.28;5346606;26;19996;-72
2024/04/21 10:21:38;;;;;;;15.77;3.63;;;;;;;12.94;100.00;102329.81;5349681;26;20029;-73
2024/04/21 10:24:04;;;;;;;15.43;3.60;;;;;;;15.04;100.00;102327.41;5349684;26;19997;-69
2024/04/21 10:26:30;;;;;;;11.57;3.42;;;;;;;16.87;100.00;102334.69;5349297;26;20033;-70
2024/04/21 10:29:15;;;;;;;13.55;3.50;;;;;;;17.58;100.00;102334.75;5347543;26;19997;-69
2024/04/21 10:31:41;;;;;;;15.38;3.70;;;;;;;15.66;100.00;102333.25;5349514;26;20078;-70
2024/04/21 10:34:09;;;;;;;14.55;3.55;;;;;;;16.27;100.00;102327.41;5349506;26;20004;-70
2024/04/21 10:36:39;;;;;;;13.73;3.20;;;;;;;16.09;100.00;102338.88;5349647;26;20011;-66
2024/04/21 10:39:05;;;;;;;17.08;3.78;;;;;;;14.98;100.00;102338.03;5349085;26;20001;-67
2024/04/21 10:41:40;;;;;;;13.85;3.58;;;;;;;16.47;100.00;102347.91;5349032;26;19996;-66
2024/04/21 10:44:06;;;;;;;16.98;3.42;;;;;;;16.33;100.00;102338.09;5349611;26;20042;-65
2024/04/21 10:46:31;;;;;;;14.65;3.30;;;;;;;16.74;100.00;102337.31;5348936;26;20001;-69
2024/04/21 10:48:57;;;;;;;13.18;3.30;;;;;;;18.41;77.84;102339.88;5349348;26;20004;-70
2024/04/21 10:51:23;;;;;;;14.27;3.30;;;;;;;16.81;85.61;102345.38;5347192;26;20011;-69
2024/04/21 10:53:49;;;;;;;12.65;3.22;;;;;;;15.41;100.00;102348.19;5349219;26;20092;-70
2024/04/21 10:56:15;;;;;;;11.50;3.10;;;;;;;16.04;100.00;102336.19;5342072;26;20004;-68
2024/04/21 10:58:40;;;;;;;13.85;2.90;;;;;;;15.34;100.00;102341.91;5348917;26;20004;-67
2024/04/21 11:01:07;;;;;;;11.68;3.20;;;;;;;14.78;100.00;102348.47;5348675;26;20005;-69
2024/04/21 11:03:33;;;;;;;12.05;3.20;;;;;;;14.69;100.00;102337.72;5348721;26;20008;-69
2024/04/21 11:06:01;;;;;;;12.70;3.10;;;;;;;14.11;100.00;102345.00;5349127;26;19997;-70
2024/04/21 11:08:27;;;;;;;11.05;3.10;;;;;;;16.53;100.00;102350.63;5391150;26;20029;-70
2024/04/21 11:10:53;;;;;;;8.95;3.10;;;;;;;18.51;81.91;102347.84;5348799;26;20399;-70